createdAt,value
2018-06-14T00:03:46.495Z,40.20
2018-06-14T00:08:49.807Z,40.20
2018-06-14T00:13:53.387Z,40.20
2018-06-14T00:18:56.704Z,40.20
2018-06-14T00:24:00.063Z,40.20
2018-06-14T00:29:03.323Z,40.20
2018-06-14T00:34:06.529Z,40.30
2018-06-14T00:39:09.779Z,40.30
2018-06-14T00:44:13.014Z,40.50
2018-06-14T00:49:16.724Z,40.40
2018-06-14T00:54:20.233Z,40.40
2018-06-14T00:59:23.413Z,40.50
2018-06-14T01:04:27.268Z,40.70
2018-06-14T01:09:30.721Z,40.70
2018-06-14T01:14:33.896Z,40.90
2018-06-14T01:19:37.177Z,41.00
2018-06-14T01:24:41.571Z,41.00
2018-06-14T01:29:44.943Z,41.00
2018-06-14T01:34:48.214Z,41.00
2018-06-14T01:39:51.385Z,41.20
2018-06-14T01:44:54.552Z,41.20
2018-06-14T01:49:58.277Z,41.20
2018-06-14T01:55:01.488Z,41.20
2018-06-14T02:00:04.979Z,41.10
2018-06-14T02:05:08.341Z,41.10
2018-06-14T02:10:11.600Z,41.20
2018-06-14T02:15:15.264Z,41.20
2018-06-14T02:20:18.580Z,41.30
2018-06-14T02:25:22.201Z,41.40
2018-06-14T02:30:25.759Z,41.40
2018-06-14T02:35:29.099Z,41.40
2018-06-14T02:40:32.501Z,41.40
2018-06-14T02:45:35.701Z,41.30
2018-06-14T02:50:38.971Z,41.30
2018-06-14T02:55:42.247Z,41.30
2018-06-14T03:00:46.150Z,41.40
2018-06-14T03:05:49.366Z,41.40
2018-06-14T03:10:52.651Z,41.50
2018-06-14T03:15:55.937Z,41.60
2018-06-14T03:20:59.165Z,41.50
2018-06-14T03:26:02.487Z,41.50
2018-06-14T03:31:05.745Z,41.50
2018-06-14T03:36:09.058Z,41.50
2018-06-14T03:41:12.341Z,41.50
2018-06-14T03:46:15.565Z,41.50
2018-06-14T03:51:18.804Z,41.50
2018-06-14T03:56:22.541Z,41.70
2018-06-14T04:01:26.571Z,41.80
2018-06-14T04:06:30.097Z,41.80
2018-06-14T04:11:33.424Z,41.80
2018-06-14T04:16:37.394Z,41.80
2018-06-14T04:21:40.639Z,41.70
2018-06-14T04:26:44.101Z,41.70
2018-06-14T04:31:47.407Z,41.80
2018-06-14T04:36:51.602Z,41.90
2018-06-14T04:41:54.853Z,41.90
2018-06-14T04:46:58.229Z,41.80
2018-06-14T04:52:02.524Z,41.90
2018-06-14T04:57:06.014Z,41.80
2018-06-14T05:02:09.247Z,41.90
2018-06-14T05:07:12.506Z,41.90
2018-06-14T05:12:16.448Z,41.90
2018-06-14T05:17:19.727Z,41.90
2018-06-14T05:22:23.164Z,41.80
2018-06-14T05:27:26.620Z,42.00
2018-06-14T05:32:30.251Z,42.00
2018-06-14T05:42:36.845Z,42.00
2018-06-14T05:47:40.204Z,42.00
2018-06-14T05:52:43.596Z,42.00
2018-06-14T05:57:46.825Z,41.90
2018-06-14T06:02:51.519Z,41.90
2018-06-14T06:07:54.976Z,41.80
2018-06-14T06:12:58.311Z,41.90
2018-06-14T06:18:02.062Z,41.60
2018-06-14T06:23:05.475Z,41.60
2018-06-14T06:28:08.748Z,41.50
2018-06-14T06:33:12.630Z,41.50
2018-06-14T06:38:15.981Z,41.40
2018-06-14T06:43:20.064Z,41.50
2018-06-14T06:48:23.391Z,41.40
2018-06-14T06:53:26.907Z,41.30
2018-06-14T06:58:30.543Z,41.30
2018-06-14T07:03:33.839Z,41.10
2018-06-14T07:08:37.801Z,40.90
2018-06-14T07:13:41.641Z,39.70
2018-06-14T07:18:45.009Z,41.10
2018-06-14T07:23:48.400Z,40.40
2018-06-14T07:28:52.572Z,36.60
2018-06-14T07:33:55.937Z,34.70
2018-06-14T07:38:59.386Z,34.30
2018-06-14T07:44:02.600Z,35.00
2018-06-14T07:49:05.899Z,33.80
2018-06-14T07:54:09.346Z,34.80
2018-06-14T07:59:12.851Z,34.20
2018-06-14T08:04:16.110Z,34.40
2018-06-14T08:09:19.481Z,34.00
2018-06-14T08:14:22.846Z,33.20
2018-06-14T08:19:26.132Z,33.40
2018-06-14T08:24:31.004Z,33.30
2018-06-14T08:29:34.350Z,33.50
2018-06-14T08:34:37.792Z,33.20
2018-06-14T08:39:41.052Z,33.10
2018-06-14T08:44:44.382Z,33.50
2018-06-14T08:49:47.700Z,32.70
2018-06-14T08:54:50.944Z,32.50
2018-06-14T08:59:54.200Z,32.40
2018-06-14T09:04:57.499Z,32.80
2018-06-14T09:10:00.850Z,33.10
2018-06-14T09:15:04.109Z,31.70
2018-06-14T09:20:07.444Z,31.50
2018-06-14T09:25:10.664Z,31.40
2018-06-14T09:30:13.888Z,31.60
2018-06-14T09:35:17.354Z,31.50
2018-06-14T09:40:20.899Z,31.30
2018-06-14T09:45:24.544Z,30.70
2018-06-14T09:50:28.602Z,31.00
2018-06-14T09:55:32.102Z,31.00
2018-06-14T10:00:35.344Z,31.30
2018-06-14T10:05:38.590Z,31.00
2018-06-14T10:10:41.877Z,31.10
2018-06-14T10:15:45.848Z,31.20
2018-06-14T10:20:49.314Z,31.00
2018-06-14T10:25:52.647Z,30.60
2018-06-14T10:30:55.882Z,31.10
2018-06-14T10:35:59.190Z,30.40
2018-06-14T10:41:02.556Z,30.40
2018-06-14T10:46:06.073Z,30.30
2018-06-14T10:51:09.615Z,30.40
2018-06-14T10:56:12.843Z,30.30
2018-06-14T11:01:16.531Z,30.80
2018-06-14T11:06:19.967Z,31.00
2018-06-14T11:11:23.391Z,30.90
2018-06-14T11:16:26.691Z,30.80
2018-06-14T11:21:30.197Z,31.10
2018-06-14T11:26:33.511Z,30.90
2018-06-14T11:31:36.822Z,30.80
2018-06-14T11:36:40.096Z,31.30
2018-06-14T11:41:44.452Z,31.00
2018-06-14T11:46:47.846Z,31.30
2018-06-14T11:51:51.055Z,31.50
2018-06-14T11:56:55.606Z,31.70
2018-06-14T12:01:59.062Z,31.70
2018-06-14T12:07:02.948Z,31.70
2018-06-14T12:12:06.269Z,31.80
2018-06-14T12:17:09.623Z,32.10
2018-06-14T12:22:12.990Z,32.10
2018-06-14T12:27:16.300Z,32.70
2018-06-14T12:32:19.541Z,32.60
2018-06-14T12:37:22.934Z,32.70
2018-06-14T12:42:26.246Z,32.80
2018-06-14T12:47:29.584Z,32.80
2018-06-14T12:52:33.062Z,33.30
2018-06-14T12:57:36.452Z,33.20
2018-06-14T13:02:39.794Z,33.10
2018-06-14T13:07:43.057Z,33.20
2018-06-14T13:12:46.532Z,33.20
2018-06-14T13:17:50.031Z,33.90
2018-06-14T13:22:53.594Z,34.20
2018-06-14T13:27:57.005Z,34.20
2018-06-14T13:33:00.622Z,34.30
2018-06-14T13:38:04.159Z,34.40
2018-06-14T13:43:07.577Z,34.60
2018-06-14T13:48:10.942Z,34.70
2018-06-14T13:53:14.237Z,34.90
2018-06-14T13:58:17.550Z,35.20
2018-06-14T14:03:20.952Z,35.10
2018-06-14T14:08:24.302Z,34.70
2018-06-14T14:13:27.796Z,34.70
2018-06-14T14:18:31.413Z,34.80
2018-06-14T14:23:35.427Z,34.80
2018-06-14T14:28:38.766Z,34.90
2018-06-14T14:33:42.249Z,35.40
2018-06-14T14:38:45.823Z,35.60
2018-06-14T14:43:49.514Z,35.70
2018-06-14T14:53:55.823Z,36.20
2018-06-14T14:58:59.177Z,36.30
2018-06-14T15:04:02.434Z,36.30
2018-06-14T15:09:07.591Z,36.20
2018-06-14T15:14:11.092Z,36.00
2018-06-14T15:19:14.522Z,36.20
2018-06-14T15:24:17.928Z,36.20
2018-06-14T15:29:21.145Z,36.00
2018-06-14T15:34:25.032Z,36.00
2018-06-14T15:39:28.596Z,36.00
2018-06-14T15:44:31.969Z,36.20
2018-06-14T15:49:35.450Z,36.10
2018-06-14T15:59:48.245Z,36.10
2018-06-14T16:04:51.649Z,36.30
2018-06-14T16:09:55.242Z,36.60
2018-06-14T16:14:58.958Z,36.30
2018-06-14T16:20:02.481Z,36.60
2018-06-14T16:25:05.713Z,36.70
2018-06-14T16:30:09.224Z,37.00
2018-06-14T16:35:12.529Z,37.70
2018-06-14T16:40:16.083Z,36.90
2018-06-14T16:45:19.409Z,37.10
2018-06-14T16:50:22.697Z,37.10
2018-06-14T16:55:26.099Z,37.00
2018-06-14T17:00:29.672Z,37.10
2018-06-14T17:05:32.887Z,37.10
2018-06-14T17:10:36.226Z,37.30
2018-06-14T17:15:39.592Z,37.10
2018-06-14T17:20:43.572Z,37.40
2018-06-14T17:25:46.857Z,37.50
2018-06-14T17:30:50.093Z,37.50
2018-06-14T17:35:53.534Z,37.50
2018-06-14T17:40:56.877Z,37.30
2018-06-14T17:46:02.957Z,37.60
2018-06-14T17:51:06.223Z,37.50
2018-06-14T17:56:09.672Z,37.50
2018-06-14T18:01:12.893Z,37.50
2018-06-14T18:06:16.200Z,37.40
2018-06-14T18:11:19.481Z,37.60
2018-06-14T18:16:22.739Z,37.70
2018-06-14T18:21:26.412Z,37.70
2018-06-14T18:26:29.609Z,37.90
2018-06-14T18:31:32.917Z,38.00
2018-06-14T18:36:36.207Z,38.00
2018-06-14T18:41:39.929Z,38.50
2018-06-14T18:46:43.338Z,37.90
2018-06-14T18:51:46.777Z,37.70
2018-06-14T18:56:50.048Z,38.00
2018-06-14T19:01:53.364Z,37.90
2018-06-14T19:06:56.964Z,38.30
2018-06-14T19:12:00.762Z,38.20
2018-06-14T19:17:04.867Z,37.80
2018-06-14T19:22:08.125Z,37.60
2018-06-14T19:27:11.430Z,37.20
2018-06-14T19:32:14.644Z,37.30
2018-06-14T19:37:17.889Z,36.30
2018-06-14T19:42:21.370Z,36.50
2018-06-14T19:47:24.675Z,36.60
2018-06-14T19:52:28.167Z,36.80
2018-06-14T19:57:31.469Z,36.20
2018-06-14T20:02:34.789Z,35.70
2018-06-14T20:07:38.151Z,35.90
2018-06-14T20:12:41.701Z,35.50
2018-06-14T20:17:45.080Z,36.00
2018-06-14T20:22:48.428Z,35.70
2018-06-14T20:27:51.751Z,36.40
2018-06-14T20:32:55.965Z,36.00
2018-06-14T20:37:59.961Z,35.60
2018-06-14T20:43:03.928Z,37.30
2018-06-14T20:48:07.246Z,36.90
2018-06-14T20:53:10.820Z,37.00
2018-06-14T20:58:14.185Z,37.30
2018-06-14T21:03:17.517Z,37.20
2018-06-14T21:08:21.224Z,37.20
2018-06-14T21:13:24.561Z,37.50
2018-06-14T21:18:28.011Z,37.90
2018-06-14T21:23:31.656Z,38.10
2018-06-14T21:28:34.978Z,38.50
2018-06-14T21:33:38.232Z,39.30
2018-06-14T21:38:42.425Z,39.30
2018-06-14T21:43:45.761Z,40.30
2018-06-14T21:48:49.134Z,40.00
2018-06-14T21:53:52.480Z,40.40
2018-06-14T21:58:55.691Z,40.30
2018-06-14T22:04:00.681Z,40.10
2018-06-14T22:09:05.224Z,40.00
2018-06-14T22:14:08.790Z,39.90
2018-06-14T22:19:12.019Z,39.40
2018-06-14T22:24:15.344Z,39.00
2018-06-14T22:29:18.795Z,39.00
2018-06-14T22:34:33.607Z,38.90
2018-06-14T22:39:37.135Z,38.90
2018-06-14T22:44:41.636Z,39.10
2018-06-14T22:49:44.894Z,39.00
2018-06-14T22:59:51.771Z,39.20
2018-06-14T23:04:55.060Z,39.20
2018-06-14T23:10:20.725Z,39.30
2018-06-14T23:15:23.948Z,39.30
2018-06-14T23:20:28.328Z,39.50
2018-06-14T23:25:32.091Z,39.50
2018-06-14T23:30:36.194Z,39.60
2018-06-14T23:35:39.561Z,39.80
2018-06-14T23:40:42.822Z,39.80
2018-06-14T23:45:46.105Z,40.50
2018-06-14T23:50:50.120Z,39.90
2018-06-14T23:55:53.402Z,40.10
